sensor_id;sensor_type;location;lat;lon;timestamp;pressure;altitude;pressure_sealevel;temperature;humidity
10348;BME280;5220;43.192;23.284;2022-07-29T00:01:16;97161.06;;;22.93;71.98
10348;BME280;5220;43.192;23.284;2022-07-29T00:03:43;97150.47;;;22.93;72.19
10348;BME280;5220;43.192;23.284;2022-07-29T00:06:10;97148.81;;;22.92;72.63
10348;BME280;5220;43.192;23.284;2022-07-29T00:08:36;97151.09;;;22.95;72.05
10348;BME280;5220;43.192;23.284;2022-07-29T00:11:03;97165.72;;;23.06;72.10
10348;BME280;5220;43.192;23.284;2022-07-29T00:13:32;97168.09;;;23.15;71.56
10348;BME280;5220;43.192;23.284;2022-07-29T00:15:58;97164.63;;;23.15;71.63
10348;BME280;5220;43.192;23.284;2022-07-29T00:18:25;97163.78;;;23.14;71.54
10348;BME280;5220;43.192;23.284;2022-07-29T00:20:52;97163.25;;;23.19;71.66
10348;BME280;5220;43.192;23.284;2022-07-29T00:23:19;97163.41;;;23.17;71.72
10348;BME280;5220;43.192;23.284;2022-07-29T00:25:46;97167.63;;;23.26;71.91
10348;BME280;5220;43.192;23.284;2022-07-29T00:28:12;97160.69;;;23.25;71.93
10348;BME280;5220;43.192;23.284;2022-07-29T00:30:40;97166.00;;;23.25;71.93
10348;BME280;5220;43.192;23.284;2022-07-29T00:33:08;97167.19;;;23.08;72.48
10348;BME280;5220;43.192;23.284;2022-07-29T00:35:35;97163.78;;;23.14;72.28
10348;BME280;5220;43.192;23.284;2022-07-29T00:38:19;97165.25;;;23.17;72.44
10348;BME280;5220;43.192;23.284;2022-07-29T00:40:46;97165.34;;;23.23;72.27
10348;BME280;5220;43.192;23.284;2022-07-29T00:43:14;97161.13;;;23.29;72.23
10348;BME280;5220;43.192;23.284;2022-07-29T00:45:42;97157.47;;;23.30;71.65
10348;BME280;5220;43.192;23.284;2022-07-29T00:48:09;97161.50;;;23.26;71.98
10348;BME280;5220;43.192;23.284;2022-07-29T00:50:37;97159.94;;;23.31;71.96
10348;BME280;5220;43.192;23.284;2022-07-29T00:53:05;97156.09;;;23.34;71.88
10348;BME280;5220;43.192;23.284;2022-07-29T00:55:33;97162.97;;;23.43;71.80
10348;BME280;5220;43.192;23.284;2022-07-29T00:58:00;97164.41;;;23.45;71.78
10348;BME280;5220;43.192;23.284;2022-07-29T01:00:28;97160.13;;;23.44;71.98
10348;BME280;5220;43.192;23.284;2022-07-29T01:02:56;97159.47;;;23.42;71.54
10348;BME280;5220;43.192;23.284;2022-07-29T01:05:24;97154.72;;;23.38;71.93
10348;BME280;5220;43.192;23.284;2022-07-29T01:07:53;97147.41;;;23.40;72.34
10348;BME280;5220;43.192;23.284;2022-07-29T01:10:21;97158.47;;;23.43;72.07
10348;BME280;5220;43.192;23.284;2022-07-29T01:12:51;97146.66;;;23.46;72.02
10348;BME280;5220;43.192;23.284;2022-07-29T01:15:20;97144.81;;;23.46;71.86
10348;BME280;5220;43.192;23.284;2022-07-29T01:17:52;97145.44;;;23.48;71.70
10348;BME280;5220;43.192;23.284;2022-07-29T01:20:28;97142.63;;;23.50;71.97
10348;BME280;5220;43.192;23.284;2022-07-29T01:23:11;97138.75;;;23.52;71.91
10348;BME280;5220;43.192;23.284;2022-07-29T01:26:04;97132.25;;;23.55;72.17
10348;BME280;5220;43.192;23.284;2022-07-29T01:28:49;97136.09;;;23.52;72.21
10348;BME280;5220;43.192;23.284;2022-07-29T01:31:22;97134.00;;;23.48;72.37
10348;BME280;5220;43.192;23.284;2022-07-29T01:33:57;97124.41;;;23.47;72.40
10348;BME280;5220;43.192;23.284;2022-07-29T01:36:28;97120.31;;;23.44;72.35
10348;BME280;5220;43.192;23.284;2022-07-29T01:39:01;97124.03;;;23.50;72.62
10348;BME280;5220;43.192;23.284;2022-07-29T01:41:31;97118.50;;;23.51;71.93
10348;BME280;5220;43.192;23.284;2022-07-29T01:44:02;97107.88;;;23.51;72.20
10348;BME280;5220;43.192;23.284;2022-07-29T01:46:34;97100.94;;;23.50;72.35
10348;BME280;5220;43.192;23.284;2022-07-29T01:49:08;97104.22;;;23.52;72.46
10348;BME280;5220;43.192;23.284;2022-07-29T01:51:42;97098.53;;;23.55;72.37
10348;BME280;5220;43.192;23.284;2022-07-29T01:54:14;97090.19;;;23.59;72.07
10348;BME280;5220;43.192;23.284;2022-07-29T01:56:42;97088.28;;;23.52;72.06
10348;BME280;5220;43.192;23.284;2022-07-29T01:59:11;97088.84;;;23.48;72.29
10348;BME280;5220;43.192;23.284;2022-07-29T02:01:40;97078.44;;;23.46;72.41
10348;BME280;5220;43.192;23.284;2022-07-29T02:04:11;97084.50;;;23.40;72.62
10348;BME280;5220;43.192;23.284;2022-07-29T02:06:40;97077.06;;;23.36;72.74
10348;BME280;5220;43.192;23.284;2022-07-29T02:09:10;97079.34;;;23.39;73.23
10348;BME280;5220;43.192;23.284;2022-07-29T02:11:40;97077.63;;;23.31;73.30
10348;BME280;5220;43.192;23.284;2022-07-29T02:14:13;97083.41;;;23.20;73.56
10348;BME280;5220;43.192;23.284;2022-07-29T02:16:41;97074.38;;;23.15;74.41
10348;BME280;5220;43.192;23.284;2022-07-29T02:19:10;97072.72;;;23.14;74.07
10348;BME280;5220;43.192;23.284;2022-07-29T02:21:38;97072.19;;;23.18;74.26
10348;BME280;5220;43.192;23.284;2022-07-29T02:24:09;97064.28;;;23.25;74.02
10348;BME280;5220;43.192;23.284;2022-07-29T02:26:39;97064.19;;;22.97;74.41
10348;BME280;5220;43.192;23.284;2022-07-29T02:29:08;97061.25;;;22.92;74.57
10348;BME280;5220;43.192;23.284;2022-07-29T02:31:38;97063.09;;;22.91;75.02
10348;BME280;5220;43.192;23.284;2022-07-29T02:34:08;97059.25;;;22.94;75.11
10348;BME280;5220;43.192;23.284;2022-07-29T02:36:36;97063.34;;;22.96;75.00
10348;BME280;5220;43.192;23.284;2022-07-29T02:39:03;97053.13;;;22.93;74.68
10348;BME280;5220;43.192;23.284;2022-07-29T02:41:36;97057.72;;;22.70;75.48
10348;BME280;5220;43.192;23.284;2022-07-29T02:44:08;97059.75;;;22.68;75.81
10348;BME280;5220;43.192;23.284;2022-07-29T02:46:41;97065.22;;;22.67;75.96
10348;BME280;5220;43.192;23.284;2022-07-29T02:49:15;97065.41;;;22.65;76.23
10348;BME280;5220;43.192;23.284;2022-07-29T02:51:44;97062.75;;;22.65;76.28
10348;BME280;5220;43.192;23.284;2022-07-29T02:54:21;97070.53;;;22.67;76.38
10348;BME280;5220;43.192;23.284;2022-07-29T02:56:49;97069.81;;;22.73;76.35
10348;BME280;5220;43.192;23.284;2022-07-29T02:59:24;97069.69;;;22.81;75.89
10348;BME280;5220;43.192;23.284;2022-07-29T03:01:55;97070.53;;;22.81;75.53
10348;BME280;5220;43.192;23.284;2022-07-29T03:04:26;97076.09;;;22.86;75.46
10348;BME280;5220;43.192;23.284;2022-07-29T03:06:54;97073.88;;;22.90;75.29
10348;BME280;5220;43.192;23.284;2022-07-29T03:09:22;97072.22;;;22.89;75.17
10348;BME280;5220;43.192;23.284;2022-07-29T03:11:50;97074.88;;;22.89;75.28
10348;BME280;5220;43.192;23.284;2022-07-29T03:14:19;97077.00;;;22.93;75.41
10348;BME280;5220;43.192;23.284;2022-07-29T03:16:48;97078.00;;;22.92;75.44
10348;BME280;5220;43.192;23.284;2022-07-29T03:19:18;97082.09;;;22.95;75.41
10348;BME280;5220;43.192;23.284;2022-07-29T03:21:47;97079.72;;;23.00;75.38
10348;BME280;5220;43.192;23.284;2022-07-29T03:24:32;97079.97;;;23.05;75.05
10348;BME280;5220;43.192;23.284;2022-07-29T03:26:59;97080.59;;;23.07;74.85
10348;BME280;5220;43.192;23.284;2022-07-29T03:29:26;97082.91;;;23.10;74.51
10348;BME280;5220;43.192;23.284;2022-07-29T03:31:53;97083.38;;;22.99;74.30
10348;BME280;5220;43.192;23.284;2022-07-29T03:34:22;97092.09;;;22.93;74.86
10348;BME280;5220;43.192;23.284;2022-07-29T03:36:49;97089.63;;;22.91;75.33
10348;BME280;5220;43.192;23.284;2022-07-29T03:39:20;97089.63;;;22.91;75.72
10348;BME280;5220;43.192;23.284;2022-07-29T03:41:49;97092.16;;;22.99;75.02
10348;BME280;5220;43.192;23.284;2022-07-29T03:44:19;97096.41;;;22.94;75.14
10348;BME280;5220;43.192;23.284;2022-07-29T03:46:48;97088.97;;;22.89;75.36
10348;BME280;5220;43.192;23.284;2022-07-29T03:49:18;97093.56;;;22.81;75.71
10348;BME280;5220;43.192;23.284;2022-07-29T03:51:47;97093.41;;;22.68;76.15
10348;BME280;5220;43.192;23.284;2022-07-29T03:54:14;97095.47;;;22.58;76.66
10348;BME280;5220;43.192;23.284;2022-07-29T03:56:43;97097.13;;;22.59;77.19
10348;BME280;5220;43.192;23.284;2022-07-29T03:59:13;97095.28;;;22.59;77.02
10348;BME280;5220;43.192;23.284;2022-07-29T04:01:41;97094.09;;;22.62;77.33
10348;BME280;5220;43.192;23.284;2022-07-29T04:04:09;97090.44;;;22.63;77.16
10348;BME280;5220;43.192;23.284;2022-07-29T04:06:39;97090.75;;;22.68;76.90
10348;BME280;5220;43.192;23.284;2022-07-29T04:09:09;97094.47;;;22.59;77.21
10348;BME280;5220;43.192;23.284;2022-07-29T04:11:37;97091.28;;;22.63;77.29
10348;BME280;5220;43.192;23.284;2022-07-29T04:14:04;97097.38;;;22.64;77.28
10348;BME280;5220;43.192;23.284;2022-07-29T04:16:31;97091.75;;;22.67;77.13
10348;BME280;5220;43.192;23.284;2022-07-29T04:18:58;97091.09;;;22.79;76.81
10348;BME280;5220;43.192;23.284;2022-07-29T04:21:25;97101.28;;;22.76;77.00
10348;BME280;5220;43.192;23.284;2022-07-29T04:23:52;97100.78;;;22.87;77.32
10348;BME280;5220;43.192;23.284;2022-07-29T04:26:20;97107.19;;;22.92;77.11
10348;BME280;5220;43.192;23.284;2022-07-29T04:28:47;97103.97;;;22.97;77.59
10348;BME280;5220;43.192;23.284;2022-07-29T04:31:14;97106.25;;;23.00;77.33
10348;BME280;5220;43.192;23.284;2022-07-29T04:33:41;97107.59;;;23.11;76.69
10348;BME280;5220;43.192;23.284;2022-07-29T04:36:07;97106.09;;;23.23;76.60
10348;BME280;5220;43.192;23.284;2022-07-29T04:38:36;97105.00;;;23.32;75.75
10348;BME280;5220;43.192;23.284;2022-07-29T04:41:03;97108.53;;;23.39;75.90
10348;BME280;5220;43.192;23.284;2022-07-29T04:43:31;97105.00;;;23.46;75.63
10348;BME280;5220;43.192;23.284;2022-07-29T04:45:58;97104.41;;;23.51;75.39
10348;BME280;5220;43.192;23.284;2022-07-29T04:48:25;97101.34;;;23.47;75.38
10348;BME280;5220;43.192;23.284;2022-07-29T04:50:52;97108.84;;;23.44;75.51
10348;BME280;5220;43.192;23.284;2022-07-29T04:53:19;97104.16;;;23.46;75.83
10348;BME280;5220;43.192;23.284;2022-07-29T04:55:46;97107.25;;;23.49;75.84
10348;BME280;5220;43.192;23.284;2022-07-29T04:58:12;97105.88;;;23.53;75.72
10348;BME280;5220;43.192;23.284;2022-07-29T05:00:41;97108.78;;;23.59;75.76
10348;BME280;5220;43.192;23.284;2022-07-29T05:03:08;97107.41;;;23.63;75.50
10348;BME280;5220;43.192;23.284;2022-07-29T05:05:34;97103.53;;;23.65;75.33
10348;BME280;5220;43.192;23.284;2022-07-29T05:08:01;97104.38;;;23.66;75.24
10348;BME280;5220;43.192;23.284;2022-07-29T05:10:28;97106.38;;;23.64;75.24
10348;BME280;5220;43.192;23.284;2022-07-29T05:12:55;97106.66;;;23.69;75.20
10348;BME280;5220;43.192;23.284;2022-07-29T05:15:21;97113.84;;;23.75;75.21
10348;BME280;5220;43.192;23.284;2022-07-29T05:17:50;97120.78;;;23.76;75.40
10348;BME280;5220;43.192;23.284;2022-07-29T05:20:16;97113.41;;;23.71;75.37
10348;BME280;5220;43.192;23.284;2022-07-29T05:22:44;97126.06;;;23.69;75.34
10348;BME280;5220;43.192;23.284;2022-07-29T05:25:10;97126.88;;;23.70;75.27
10348;BME280;5220;43.192;23.284;2022-07-29T05:27:37;97127.75;;;23.77;75.26
10348;BME280;5220;43.192;23.284;2022-07-29T05:30:05;97133.34;;;23.82;75.38
10348;BME280;5220;43.192;23.284;2022-07-29T05:32:32;97135.41;;;23.86;75.01
10348;BME280;5220;43.192;23.284;2022-07-29T05:35:00;97140.78;;;23.93;74.79
10348;BME280;5220;43.192;23.284;2022-07-29T05:37:27;97145.97;;;24.01;75.20
10348;BME280;5220;43.192;23.284;2022-07-29T05:39:55;97149.06;;;24.04;74.68
10348;BME280;5220;43.192;23.284;2022-07-29T05:42:22;97151.16;;;24.09;75.32
10348;BME280;5220;43.192;23.284;2022-07-29T05:44:48;97158.78;;;24.12;75.71
10348;BME280;5220;43.192;23.284;2022-07-29T05:47:16;97160.41;;;24.13;75.50
10348;BME280;5220;43.192;23.284;2022-07-29T05:49:43;97164.09;;;24.12;75.61
10348;BME280;5220;43.192;23.284;2022-07-29T05:52:12;97166.06;;;24.03;75.28
10348;BME280;5220;43.192;23.284;2022-07-29T05:54:40;97167.50;;;24.06;75.09
10348;BME280;5220;43.192;23.284;2022-07-29T05:57:07;97169.94;;;24.07;75.05
10348;BME280;5220;43.192;23.284;2022-07-29T05:59:35;97164.78;;;23.99;74.70
10348;BME280;5220;43.192;23.284;2022-07-29T06:02:03;97153.84;;;23.88;75.12
10348;BME280;5220;43.192;23.284;2022-07-29T06:04:31;97159.53;;;23.85;75.48
10348;BME280;5220;43.192;23.284;2022-07-29T06:07:04;97160.16;;;23.87;75.80
10348;BME280;5220;43.192;23.284;2022-07-29T06:09:33;97161.06;;;23.94;75.20
10348;BME280;5220;43.192;23.284;2022-07-29T06:12:01;97163.13;;;23.77;75.29
10348;BME280;5220;43.192;23.284;2022-07-29T06:14:31;97158.44;;;23.79;75.67
10348;BME280;5220;43.192;23.284;2022-07-29T06:16:58;97158.25;;;23.81;74.85
10348;BME280;5220;43.192;23.284;2022-07-29T06:19:28;97160.09;;;23.80;74.92
10348;BME280;5220;43.192;23.284;2022-07-29T06:21:55;97165.22;;;23.82;74.95
10348;BME280;5220;43.192;23.284;2022-07-29T06:24:22;97165.47;;;23.87;74.83
10348;BME280;5220;43.192;23.284;2022-07-29T06:26:50;97156.06;;;23.84;74.69
10348;BME280;5220;43.192;23.284;2022-07-29T06:29:16;97150.81;;;23.91;75.18
10348;BME280;5220;43.192;23.284;2022-07-29T06:31:43;97151.28;;;24.01;74.46
10348;BME280;5220;43.192;23.284;2022-07-29T06:34:10;97150.91;;;24.04;74.31
10348;BME280;5220;43.192;23.284;2022-07-29T06:36:37;97150.50;;;24.07;74.05
10348;BME280;5220;43.192;23.284;2022-07-29T06:39:05;97158.88;;;24.04;74.24
10348;BME280;5220;43.192;23.284;2022-07-29T06:41:32;97153.38;;;24.05;74.11
10348;BME280;5220;43.192;23.284;2022-07-29T06:44:01;97153.19;;;24.07;73.92
10348;BME280;5220;43.192;23.284;2022-07-29T06:46:29;97153.81;;;24.09;73.83
10348;BME280;5220;43.192;23.284;2022-07-29T06:48:57;97156.28;;;24.10;74.52
10348;BME280;5220;43.192;23.284;2022-07-29T06:51:24;97151.44;;;24.14;74.53
10348;BME280;5220;43.192;23.284;2022-07-29T06:53:51;97155.94;;;24.14;74.60
10348;BME280;5220;43.192;23.284;2022-07-29T06:56:18;97144.91;;;24.17;74.29
10348;BME280;5220;43.192;23.284;2022-07-29T06:58:45;97152.31;;;24.21;73.99
10348;BME280;5220;43.192;23.284;2022-07-29T07:01:13;97144.19;;;24.29;73.19
10348;BME280;5220;43.192;23.284;2022-07-29T07:03:40;97141.41;;;24.37;73.07
10348;BME280;5220;43.192;23.284;2022-07-29T07:06:07;97140.38;;;24.38;72.01
10348;BME280;5220;43.192;23.284;2022-07-29T07:08:34;97139.59;;;24.44;71.87
10348;BME280;5220;43.192;23.284;2022-07-29T07:11:01;97136.53;;;24.47;71.65
10348;BME280;5220;43.192;23.284;2022-07-29T07:13:29;97136.81;;;24.52;71.67
10348;BME280;5220;43.192;23.284;2022-07-29T07:15:59;97129.47;;;24.61;71.76
10348;BME280;5220;43.192;23.284;2022-07-29T07:18:28;97124.78;;;24.56;71.32
10348;BME280;5220;43.192;23.284;2022-07-29T07:20:55;97131.97;;;24.63;70.71
10348;BME280;5220;43.192;23.284;2022-07-29T07:23:22;97131.19;;;24.69;71.30
10348;BME280;5220;43.192;23.284;2022-07-29T07:25:49;97129.31;;;24.63;71.49
10348;BME280;5220;43.192;23.284;2022-07-29T07:28:16;97134.47;;;24.71;71.45
10348;BME280;5220;43.192;23.284;2022-07-29T07:30:44;97139.63;;;24.79;71.59
10348;BME280;5220;43.192;23.284;2022-07-29T07:33:12;97131.22;;;24.75;71.78
10348;BME280;5220;43.192;23.284;2022-07-29T07:35:41;97132.91;;;24.83;71.37
10348;BME280;5220;43.192;23.284;2022-07-29T07:38:08;97130.28;;;24.89;71.06
10348;BME280;5220;43.192;23.284;2022-07-29T07:40:35;97132.34;;;24.87;71.56
10348;BME280;5220;43.192;23.284;2022-07-29T07:43:02;97133.56;;;24.91;70.98
10348;BME280;5220;43.192;23.284;2022-07-29T07:45:29;97133.44;;;24.99;70.67
10348;BME280;5220;43.192;23.284;2022-07-29T07:47:57;97135.94;;;25.14;70.69
10348;BME280;5220;43.192;23.284;2022-07-29T07:50:24;97132.50;;;25.27;71.01
10348;BME280;5220;43.192;23.284;2022-07-29T07:52:54;97134.56;;;25.25;70.15
10348;BME280;5220;43.192;23.284;2022-07-29T07:55:23;97129.25;;;25.31;69.84
10348;BME280;5220;43.192;23.284;2022-07-29T07:57:50;97123.13;;;25.37;69.91
10348;BME280;5220;43.192;23.284;2022-07-29T08:00:17;97126.47;;;25.52;69.25
10348;BME280;5220;43.192;23.284;2022-07-29T08:02:44;97127.03;;;25.48;69.43
10348;BME280;5220;43.192;23.284;2022-07-29T08:05:12;97129.75;;;25.54;70.11
10348;BME280;5220;43.192;23.284;2022-07-29T08:07:42;97121.97;;;25.53;69.72
10348;BME280;5220;43.192;23.284;2022-07-29T08:10:11;97124.44;;;25.54;69.02
10348;BME280;5220;43.192;23.284;2022-07-29T08:12:38;97125.28;;;25.68;69.50
10348;BME280;5220;43.192;23.284;2022-07-29T08:15:06;97135.78;;;25.89;68.85
10348;BME280;5220;43.192;23.284;2022-07-29T08:17:34;97132.69;;;25.92;68.00
10348;BME280;5220;43.192;23.284;2022-07-29T08:20:01;97133.13;;;26.09;67.74
10348;BME280;5220;43.192;23.284;2022-07-29T08:22:27;97135.81;;;26.09;67.59
10348;BME280;5220;43.192;23.284;2022-07-29T08:24:54;97144.41;;;26.11;68.53
10348;BME280;5220;43.192;23.284;2022-07-29T08:27:23;97138.28;;;26.17;68.34
10348;BME280;5220;43.192;23.284;2022-07-29T08:29:51;97141.38;;;26.40;67.77
10348;BME280;5220;43.192;23.284;2022-07-29T08:32:18;97139.91;;;26.38;67.89
10348;BME280;5220;43.192;23.284;2022-07-29T08:34:45;97141.34;;;26.47;67.56
10348;BME280;5220;43.192;23.284;2022-07-29T08:37:12;97137.81;;;26.66;67.45
10348;BME280;5220;43.192;23.284;2022-07-29T08:39:39;97134.13;;;26.73;66.97
10348;BME280;5220;43.192;23.284;2022-07-29T08:42:06;97128.56;;;26.68;67.06
10348;BME280;5220;43.192;23.284;2022-07-29T08:44:35;97135.56;;;26.76;66.83
10348;BME280;5220;43.192;23.284;2022-07-29T08:47:02;97132.28;;;26.67;66.30
10348;BME280;5220;43.192;23.284;2022-07-29T08:49:30;97127.56;;;26.69;66.52
10348;BME280;5220;43.192;23.284;2022-07-29T08:51:57;97133.91;;;26.82;66.53
10348;BME280;5220;43.192;23.284;2022-07-29T08:54:25;97139.22;;;26.95;66.90
10348;BME280;5220;43.192;23.284;2022-07-29T08:56:52;97133.06;;;26.94;65.15
10348;BME280;5220;43.192;23.284;2022-07-29T08:59:20;97138.78;;;27.04;65.02
10348;BME280;5220;43.192;23.284;2022-07-29T09:01:51;97139.94;;;27.21;65.64
10348;BME280;5220;43.192;23.284;2022-07-29T09:04:20;97145.53;;;27.13;65.16
10348;BME280;5220;43.192;23.284;2022-07-29T09:06:51;97140.56;;;27.23;64.14
10348;BME280;5220;43.192;23.284;2022-07-29T09:09:18;97136.22;;;27.36;63.95
10348;BME280;5220;43.192;23.284;2022-07-29T09:11:45;97134.72;;;27.46;64.08
10348;BME280;5220;43.192;23.284;2022-07-29T09:14:13;97133.22;;;27.63;63.33
10348;BME280;5220;43.192;23.284;2022-07-29T09:16:54;97127.47;;;27.60;62.99
10348;BME280;5220;43.192;23.284;2022-07-29T09:19:25;97132.69;;;27.48;63.36
10348;BME280;5220;43.192;23.284;2022-07-29T09:21:53;97131.13;;;27.65;62.96
10348;BME280;5220;43.192;23.284;2022-07-29T09:24:40;97127.75;;;27.83;62.43
10348;BME280;5220;43.192;23.284;2022-07-29T09:27:18;97124.44;;;27.81;62.51
10348;BME280;5220;43.192;23.284;2022-07-29T09:29:46;97117.00;;;27.90;61.84
10348;BME280;5220;43.192;23.284;2022-07-29T09:32:15;97125.19;;;27.95;62.10
10348;BME280;5220;43.192;23.284;2022-07-29T09:34:42;97121.50;;;27.96;62.42
10348;BME280;5220;43.192;23.284;2022-07-29T09:37:08;97113.81;;;28.06;61.77
10348;BME280;5220;43.192;23.284;2022-07-29T09:39:37;97109.22;;;28.13;61.04
10348;BME280;5220;43.192;23.284;2022-07-29T09:42:11;97106.78;;;28.11;61.39
10348;BME280;5220;43.192;23.284;2022-07-29T09:44:42;97099.69;;;28.23;60.53
10348;BME280;5220;43.192;23.284;2022-07-29T09:47:09;97099.75;;;28.17;61.82
10348;BME280;5220;43.192;23.284;2022-07-29T09:49:51;97106.00;;;28.29;60.87
10348;BME280;5220;43.192;23.284;2022-07-29T09:52:18;97095.25;;;28.36;61.02
10348;BME280;5220;43.192;23.284;2022-07-29T09:54:45;97091.31;;;28.38;60.75
10348;BME280;5220;43.192;23.284;2022-07-29T09:57:23;97088.78;;;28.43;60.68
10348;BME280;5220;43.192;23.284;2022-07-29T09:59:56;97080.59;;;28.38;60.92
10348;BME280;5220;43.192;23.284;2022-07-29T10:02:28;97072.66;;;28.50;60.36
10348;BME280;5220;43.192;23.284;2022-07-29T10:04:56;97069.91;;;28.56;60.09
10348;BME280;5220;43.192;23.284;2022-07-29T10:07:24;97069.91;;;28.56;59.81
10348;BME280;5220;43.192;23.284;2022-07-29T10:09:53;97067.50;;;28.73;59.71
10348;BME280;5220;43.192;23.284;2022-07-29T10:12:20;97052.41;;;28.78;58.58
10348;BME280;5220;43.192;23.284;2022-07-29T10:14:48;97054.94;;;28.92;59.50
10348;BME280;5220;43.192;23.284;2022-07-29T10:17:16;97052.88;;;29.05;58.91
10348;BME280;5220;43.192;23.284;2022-07-29T10:19:43;97042.31;;;29.10;58.59
10348;BME280;5220;43.192;23.284;2022-07-29T10:22:11;97047.00;;;29.15;57.57
10348;BME280;5220;43.192;23.284;2022-07-29T10:24:39;97037.25;;;29.20;58.84
10348;BME280;5220;43.192;23.284;2022-07-29T10:27:07;97042.06;;;29.30;57.91
10348;BME280;5220;43.192;23.284;2022-07-29T10:29:34;97035.00;;;29.36;57.76
10348;BME280;5220;43.192;23.284;2022-07-29T10:32:20;97037.00;;;29.22;57.69
10348;BME280;5220;43.192;23.284;2022-07-29T10:41:09;97030.69;;;29.34;57.50
10348;BME280;5220;43.192;23.284;2022-07-29T10:44:00;97019.22;;;29.57;58.04
10348;BME280;5220;43.192;23.284;2022-07-29T10:46:28;97021.91;;;29.57;57.48
10348;BME280;5220;43.192;23.284;2022-07-29T10:49:05;97020.03;;;29.58;57.21
10348;BME280;5220;43.192;23.284;2022-07-29T10:52:00;97019.34;;;29.74;56.36
10348;BME280;5220;43.192;23.284;2022-07-29T10:57:21;97012.72;;;29.76;55.18
10348;BME280;5220;43.192;23.284;2022-07-29T10:59:52;97009.84;;;29.90;56.23
10348;BME280;5220;43.192;23.284;2022-07-29T11:02:45;97019.31;;;30.04;56.55
10348;BME280;5220;43.192;23.284;2022-07-29T11:05:18;97011.47;;;30.02;55.86
10348;BME280;5220;43.192;23.284;2022-07-29T11:08:17;97003.09;;;30.22;55.24
10348;BME280;5220;43.192;23.284;2022-07-29T11:10:45;97005.28;;;30.25;55.61
10348;BME280;5220;43.192;23.284;2022-07-29T11:13:46;97003.66;;;30.12;56.12
10348;BME280;5220;43.192;23.284;2022-07-29T11:16:15;97005.78;;;30.10;55.84
10348;BME280;5220;43.192;23.284;2022-07-29T11:19:20;97003.31;;;30.09;55.51
10348;BME280;5220;43.192;23.284;2022-07-29T11:21:48;97003.19;;;30.38;55.06
10348;BME280;5220;43.192;23.284;2022-07-29T11:24:19;97005.41;;;30.30;54.43
10348;BME280;5220;43.192;23.284;2022-07-29T11:27:11;97006.34;;;30.47;54.10
10348;BME280;5220;43.192;23.284;2022-07-29T11:29:47;97002.25;;;30.33;54.76
10348;BME280;5220;43.192;23.284;2022-07-29T11:32:15;97003.91;;;30.46;55.51
10348;BME280;5220;43.192;23.284;2022-07-29T11:34:47;97006.00;;;30.44;54.43
10348;BME280;5220;43.192;23.284;2022-07-29T11:37:19;97004.72;;;30.23;54.23
10348;BME280;5220;43.192;23.284;2022-07-29T11:40:07;97002.25;;;30.33;54.08
10348;BME280;5220;43.192;23.284;2022-07-29T11:42:45;96998.78;;;30.44;53.89
10348;BME280;5220;43.192;23.284;2022-07-29T11:45:25;96999.00;;;30.43;55.13
10348;BME280;5220;43.192;23.284;2022-07-29T11:47:58;97002.03;;;30.46;53.53
10348;BME280;5220;43.192;23.284;2022-07-29T11:50:34;96999.13;;;30.48;52.75
10348;BME280;5220;43.192;23.284;2022-07-29T11:53:03;96992.34;;;30.57;52.47
10348;BME280;5220;43.192;23.284;2022-07-29T11:55:30;97001.66;;;30.66;52.60
10348;BME280;5220;43.192;23.284;2022-07-29T11:58:01;96992.34;;;30.57;51.94
10348;BME280;5220;43.192;23.284;2022-07-29T12:00:31;96992.38;;;30.73;52.58
10348;BME280;5220;43.192;23.284;2022-07-29T12:03:00;96985.75;;;30.76;52.97
10348;BME280;5220;43.192;23.284;2022-07-29T12:05:40;96983.25;;;30.98;52.24
10348;BME280;5220;43.192;23.284;2022-07-29T12:08:13;96984.63;;;31.00;51.11
10348;BME280;5220;43.192;23.284;2022-07-29T12:10:40;96975.84;;;31.05;51.30
10348;BME280;5220;43.192;23.284;2022-07-29T12:13:08;96975.75;;;31.00;50.96
10348;BME280;5220;43.192;23.284;2022-07-29T12:15:36;96977.06;;;30.97;51.45
10348;BME280;5220;43.192;23.284;2022-07-29T12:18:11;96975.34;;;31.08;51.25
10348;BME280;5220;43.192;23.284;2022-07-29T12:20:38;96974.78;;;31.06;50.40
10348;BME280;5220;43.192;23.284;2022-07-29T12:23:07;96971.47;;;31.15;50.48
10348;BME280;5220;43.192;23.284;2022-07-29T12:25:35;96970.31;;;31.11;49.80
10348;BME280;5220;43.192;23.284;2022-07-29T12:28:05;96976.38;;;31.18;50.46
10348;BME280;5220;43.192;23.284;2022-07-29T12:30:38;96969.06;;;31.02;49.67
10348;BME280;5220;43.192;23.284;2022-07-29T12:33:13;96963.38;;;30.99;50.03
10348;BME280;5220;43.192;23.284;2022-07-29T12:35:42;96959.00;;;31.09;50.89
10348;BME280;5220;43.192;23.284;2022-07-29T12:38:10;96960.19;;;31.02;49.88
10348;BME280;5220;43.192;23.284;2022-07-29T12:40:38;96957.78;;;31.17;49.16
10348;BME280;5220;43.192;23.284;2022-07-29T12:43:06;96951.94;;;31.20;49.49
10348;BME280;5220;43.192;23.284;2022-07-29T12:45:33;96946.16;;;31.28;48.89
10348;BME280;5220;43.192;23.284;2022-07-29T12:48:01;96948.69;;;31.34;50.03
10348;BME280;5220;43.192;23.284;2022-07-29T12:50:28;96943.41;;;31.39;50.66
10348;BME280;5220;43.192;23.284;2022-07-29T12:53:08;96945.03;;;31.40;51.08
10348;BME280;5220;43.192;23.284;2022-07-29T12:55:42;96944.22;;;31.40;50.12
10348;BME280;5220;43.192;23.284;2022-07-29T12:58:09;96948.69;;;31.34;49.78
10348;BME280;5220;43.192;23.284;2022-07-29T13:00:36;96931.44;;;31.47;49.08
10348;BME280;5220;43.192;23.284;2022-07-29T13:15:41;96925.78;;;31.49;50.28
10348;BME280;5220;43.192;23.284;2022-07-29T13:18:26;96936.06;;;31.35;49.69
10348;BME280;5220;43.192;23.284;2022-07-29T13:20:53;96935.09;;;31.41;49.09
10348;BME280;5220;43.192;23.284;2022-07-29T13:23:20;96929.66;;;31.53;49.16
10348;BME280;5220;43.192;23.284;2022-07-29T13:25:47;96924.78;;;31.66;48.47
10348;BME280;5220;43.192;23.284;2022-07-29T13:28:14;96917.28;;;31.68;49.08
10348;BME280;5220;43.192;23.284;2022-07-29T13:30:43;96913.38;;;31.76;48.39
10348;BME280;5220;43.192;23.284;2022-07-29T13:33:10;96904.03;;;31.83;48.46
10348;BME280;5220;43.192;23.284;2022-07-29T13:35:37;96907.06;;;31.70;48.24